createdAt,value
2022-09-15T00:01:11.481Z,69.90
2022-09-15T00:03:38.875Z,69.70
2022-09-15T00:06:06.775Z,69.70
2022-09-15T00:08:33.690Z,69.90
2022-09-15T00:11:08.540Z,70.30
2022-09-15T00:13:36.683Z,70.80
2022-09-15T00:16:04.881Z,70.60
2022-09-15T00:18:32.349Z,70.70
2022-09-15T00:20:59.356Z,71.00
2022-09-15T00:23:26.301Z,71.40
2022-09-15T00:25:53.823Z,71.70
2022-09-15T00:28:22.741Z,71.90
2022-09-15T00:30:54.849Z,72.00
2022-09-15T00:33:22.979Z,72.10
2022-09-15T00:35:51.978Z,72.10
2022-09-15T00:38:19.945Z,72.20
2022-09-15T00:40:51.825Z,72.30
2022-09-15T00:43:21.551Z,72.60
2022-09-15T00:45:49.010Z,73.00
2022-09-15T00:48:20.068Z,73.30
2022-09-15T00:50:58.511Z,73.40
2022-09-15T00:53:27.058Z,73.20
2022-09-15T00:55:56.506Z,73.00
2022-09-15T00:58:31.384Z,72.70
2022-09-15T01:01:01.598Z,72.70
2022-09-15T01:03:31.754Z,72.90
2022-09-15T01:06:04.131Z,73.00
2022-09-15T01:08:44.605Z,73.00
2022-09-15T01:11:11.628Z,73.10
2022-09-15T01:13:38.721Z,73.40
2022-09-15T01:16:47.128Z,73.60
2022-09-15T01:19:23.176Z,73.90
2022-09-15T01:21:58.961Z,73.80
2022-09-15T01:24:48.842Z,73.90
2022-09-15T01:27:45.011Z,74.20
2022-09-15T01:30:22.173Z,74.30
2022-09-15T01:33:20.076Z,74.40
2022-09-15T01:35:53.011Z,74.50
2022-09-15T01:38:39.589Z,74.40
2022-09-15T01:41:30.044Z,74.30
2022-09-15T01:44:11.820Z,74.50
2022-09-15T01:46:47.799Z,74.50
2022-09-15T01:49:19.448Z,74.50
2022-09-15T01:51:48.222Z,74.80
2022-09-15T01:54:17.746Z,75.10
2022-09-15T01:56:44.780Z,75.40
2022-09-15T01:59:12.089Z,75.70
2022-09-15T02:01:50.222Z,75.90
2022-09-15T02:04:31.204Z,76.00
2022-09-15T02:07:20.549Z,76.30
2022-09-15T02:09:51.114Z,77.60
2022-09-15T02:12:29.188Z,77.30
2022-09-15T02:15:03.451Z,77.80
2022-09-15T02:17:36.160Z,78.00
2022-09-15T02:20:17.072Z,78.20
2022-09-15T02:22:50.485Z,78.40
2022-09-15T02:25:22.365Z,78.10
2022-09-15T02:27:54.833Z,78.20
2022-09-15T02:30:22.285Z,78.40
2022-09-15T02:32:54.459Z,78.30
2022-09-15T02:35:22.411Z,78.10
2022-09-15T02:37:50.122Z,77.90
2022-09-15T02:40:17.294Z,77.90
2022-09-15T02:43:01.955Z,78.00
2022-09-15T02:45:34.157Z,78.00
2022-09-15T02:48:01.289Z,78.10
2022-09-15T02:50:28.450Z,78.20
2022-09-15T02:52:55.968Z,78.00
2022-09-15T02:55:23.950Z,77.90
2022-09-15T02:57:50.852Z,77.70
2022-09-15T03:00:20.065Z,77.40
2022-09-15T03:02:52.481Z,77.00
2022-09-15T03:05:22.623Z,76.70
2022-09-15T03:07:50.958Z,76.80
2022-09-15T03:10:18.384Z,76.70
2022-09-15T03:12:49.589Z,76.70
2022-09-15T03:15:19.529Z,76.70
2022-09-15T03:17:47.848Z,76.40
2022-09-15T03:20:21.038Z,76.20
2022-09-15T03:22:49.596Z,76.30
2022-09-15T03:25:17.719Z,76.20
2022-09-15T03:27:44.861Z,76.50
2022-09-15T03:30:12.693Z,76.50
2022-09-15T03:32:40.185Z,76.70
2022-09-15T03:35:07.615Z,76.70
2022-09-15T03:37:35.275Z,76.70
2022-09-15T03:40:04.280Z,76.70
2022-09-15T03:42:31.408Z,76.70
2022-09-15T03:44:58.373Z,76.80
2022-09-15T03:47:25.411Z,76.80
2022-09-15T03:49:52.339Z,76.80
2022-09-15T03:52:19.294Z,77.00
2022-09-15T03:54:48.288Z,77.10
2022-09-15T03:57:15.244Z,77.10
2022-09-15T03:59:42.324Z,77.20
2022-09-15T04:02:09.304Z,77.30
2022-09-15T04:04:36.838Z,77.30
2022-09-15T04:07:03.808Z,77.30
2022-09-15T04:09:31.412Z,77.30
2022-09-15T04:11:58.341Z,77.30
2022-09-15T04:14:25.360Z,77.30
2022-09-15T04:16:52.443Z,77.40
2022-09-15T04:19:19.501Z,77.50
2022-09-15T04:21:47.651Z,77.70
2022-09-15T04:24:14.688Z,77.90
2022-09-15T04:26:41.721Z,78.10
2022-09-15T04:29:14.317Z,78.30
2022-09-15T04:31:41.494Z,78.50
2022-09-15T04:34:08.856Z,78.70
2022-09-15T04:36:35.870Z,78.90
2022-09-15T04:39:03.097Z,79.10
2022-09-15T04:41:30.398Z,79.30
2022-09-15T04:43:58.461Z,79.50
2022-09-15T04:46:26.112Z,79.80
2022-09-15T04:48:53.992Z,79.90
2022-09-15T04:51:22.556Z,80.10
2022-09-15T04:53:50.255Z,80.40
2022-09-15T04:56:23.028Z,81.20
2022-09-15T04:58:58.269Z,80.70
2022-09-15T05:01:30.953Z,80.90
2022-09-15T05:03:58.069Z,81.00
2022-09-15T05:06:27.676Z,81.20
2022-09-15T05:08:56.651Z,81.30
2022-09-15T05:11:24.975Z,81.30
2022-09-15T05:13:52.398Z,81.30
2022-09-15T05:16:22.229Z,81.30
2022-09-15T05:18:51.148Z,81.40
2022-09-15T05:21:20.388Z,81.50
2022-09-15T05:23:48.416Z,81.50
2022-09-15T05:26:27.237Z,81.50
2022-09-15T05:28:54.986Z,81.60
2022-09-15T05:31:25.082Z,81.60
2022-09-15T05:33:53.100Z,81.70
2022-09-15T05:36:23.751Z,81.60
2022-09-15T05:38:51.298Z,81.50
2022-09-15T05:41:19.296Z,81.50
2022-09-15T05:43:47.456Z,81.50
2022-09-15T05:46:15.992Z,81.30
2022-09-15T05:48:43.505Z,81.00
2022-09-15T05:51:10.842Z,80.80
2022-09-15T05:53:38.490Z,80.50
2022-09-15T05:56:12.103Z,80.40
2022-09-15T05:58:40.874Z,80.50
2022-09-15T06:01:20.082Z,80.40
2022-09-15T06:03:47.825Z,80.40
2022-09-15T06:06:15.396Z,80.40
2022-09-15T06:08:50.926Z,80.40
2022-09-15T06:11:25.265Z,80.30
2022-09-15T06:13:52.279Z,80.40
2022-09-15T06:16:24.603Z,80.60
2022-09-15T06:18:53.274Z,80.50
2022-09-15T06:21:22.629Z,80.60
2022-09-15T06:24:00.599Z,80.40
2022-09-15T06:26:28.654Z,80.20
2022-09-15T06:28:57.788Z,80.10
2022-09-15T06:31:27.071Z,80.00
2022-09-15T06:33:56.094Z,79.90
2022-09-15T06:36:26.191Z,79.70
2022-09-15T06:38:53.667Z,79.30
2022-09-15T06:41:21.134Z,78.90
2022-09-15T06:43:49.338Z,78.80
2022-09-15T06:46:22.665Z,78.80
2022-09-15T06:48:51.321Z,78.40
2022-09-15T06:51:20.094Z,78.20
2022-09-15T06:53:47.243Z,77.90
2022-09-15T06:56:16.906Z,77.60
2022-09-15T06:58:45.439Z,77.50
2022-09-15T07:01:15.080Z,77.20
2022-09-15T07:03:44.123Z,77.00
2022-09-15T07:06:14.904Z,76.80
2022-09-15T07:08:42.578Z,76.70
2022-09-15T07:11:10.275Z,76.70
2022-09-15T07:13:37.492Z,76.70
2022-09-15T07:16:07.480Z,77.10
2022-09-15T07:18:35.503Z,77.30
2022-09-15T07:21:08.104Z,77.20
2022-09-15T07:23:35.814Z,77.30
2022-09-15T07:26:08.579Z,76.80
2022-09-15T07:28:35.906Z,77.20
2022-09-15T07:31:04.795Z,77.50
2022-09-15T07:33:32.529Z,77.60
2022-09-15T07:36:06.942Z,77.50
2022-09-15T07:38:35.161Z,77.50
2022-09-15T07:41:13.646Z,77.70
2022-09-15T07:43:40.726Z,78.00
2022-09-15T07:46:07.788Z,78.20
2022-09-15T07:48:34.782Z,78.60
2022-09-15T07:51:01.763Z,78.90
2022-09-15T07:53:29.940Z,79.20
2022-09-15T07:55:57.201Z,79.20
2022-09-15T07:58:25.056Z,79.40
2022-09-15T08:00:52.228Z,79.10
2022-09-15T08:03:19.373Z,78.50
2022-09-15T08:05:46.421Z,78.10
2022-09-15T08:08:13.651Z,77.90
2022-09-15T08:10:41.835Z,77.60
2022-09-15T08:13:09.185Z,77.50
2022-09-15T08:15:38.965Z,77.10
2022-09-15T08:18:06.572Z,76.80
2022-09-15T08:20:33.856Z,76.50
2022-09-15T08:23:01.072Z,76.30
2022-09-15T08:25:28.225Z,76.10
2022-09-15T08:27:56.376Z,75.90
2022-09-15T08:30:23.989Z,75.70
2022-09-15T08:32:51.431Z,75.60
2022-09-15T08:35:19.616Z,75.60
2022-09-15T08:37:46.939Z,75.50
2022-09-15T08:40:30.745Z,75.60
2022-09-15T08:43:03.851Z,75.60
2022-09-15T08:45:37.676Z,75.50
2022-09-15T08:48:08.439Z,75.30
2022-09-15T08:50:41.911Z,75.30
2022-09-15T08:53:46.308Z,75.00
2022-09-15T08:56:20.697Z,74.30
2022-09-15T08:58:48.000Z,73.50
2022-09-15T09:01:34.573Z,73.40
2022-09-15T09:04:10.244Z,74.00
2022-09-15T09:06:44.597Z,73.00
2022-09-15T09:09:20.561Z,72.40
2022-09-15T09:11:47.469Z,70.90
2022-09-15T09:14:38.243Z,70.30
2022-09-15T09:17:23.805Z,69.30
2022-09-15T09:19:58.160Z,68.50
2022-09-15T09:22:31.716Z,67.30
2022-09-15T09:25:08.544Z,66.60
2022-09-15T09:27:43.499Z,66.60
2022-09-15T09:30:15.944Z,66.20
2022-09-15T09:32:48.192Z,65.70
2022-09-15T09:35:45.038Z,65.60
2022-09-15T09:38:14.916Z,64.80
2022-09-15T09:40:43.158Z,64.00
2022-09-15T09:43:10.529Z,62.70
2022-09-15T09:45:37.604Z,62.70
2022-09-15T09:48:21.401Z,62.10
2022-09-15T09:50:50.640Z,62.30
2022-09-15T09:53:31.153Z,62.60
2022-09-15T09:56:22.255Z,62.60
2022-09-15T09:58:49.256Z,63.90
2022-09-15T10:01:21.695Z,64.20
2022-09-15T10:03:48.755Z,65.20
2022-09-15T10:06:19.151Z,66.20
2022-09-15T10:09:04.306Z,66.80
2022-09-15T10:11:48.341Z,67.10
2022-09-15T10:14:22.960Z,68.00
2022-09-15T10:17:19.011Z,68.40
2022-09-15T10:19:55.105Z,68.50
2022-09-15T10:22:30.962Z,67.90
2022-09-15T10:24:59.003Z,67.90
2022-09-15T10:27:30.672Z,67.70
2022-09-15T10:30:16.069Z,67.90
2022-09-15T10:32:43.526Z,68.40
2022-09-15T10:35:13.788Z,67.60
2022-09-15T10:37:55.903Z,66.20
2022-09-15T10:40:34.982Z,64.60
2022-09-15T10:43:11.804Z,63.80
2022-09-15T10:45:42.450Z,62.00
2022-09-15T10:48:41.574Z,59.50
2022-09-15T10:51:27.557Z,58.80
2022-09-15T10:54:25.232Z,58.40
2022-09-15T10:57:30.786Z,56.90
2022-09-15T11:00:22.471Z,57.50
2022-09-15T11:03:07.630Z,57.30
2022-09-15T11:06:05.407Z,57.50
2022-09-15T11:08:54.235Z,58.50
2022-09-15T11:11:45.666Z,59.90
2022-09-15T11:14:24.626Z,60.30
2022-09-15T11:16:54.346Z,60.50
2022-09-15T11:19:21.537Z,61.30
2022-09-15T11:21:58.330Z,61.20
2022-09-15T11:24:43.343Z,62.10
2022-09-15T11:27:17.366Z,62.30
2022-09-15T11:29:47.475Z,62.60
2022-09-15T11:32:25.136Z,63.40
2022-09-15T11:35:02.824Z,64.40
2022-09-15T11:37:51.381Z,64.90
2022-09-15T11:40:28.590Z,64.20
2022-09-15T11:43:04.531Z,63.60
2022-09-15T11:45:38.881Z,63.80
2022-09-15T11:48:18.631Z,64.50
2022-09-15T11:50:49.063Z,65.00
2022-09-15T11:53:35.387Z,65.00
2022-09-15T11:56:26.091Z,65.40
2022-09-15T11:59:14.797Z,65.90
2022-09-15T12:02:00.660Z,66.10
2022-09-15T12:04:33.422Z,66.50
2022-09-15T12:07:08.736Z,67.30
2022-09-15T12:09:39.205Z,67.20
2022-09-15T12:12:15.236Z,67.50
2022-09-15T12:14:45.031Z,67.80
2022-09-15T12:17:25.068Z,67.50
2022-09-15T12:20:44.360Z,67.40
2022-09-15T12:23:14.252Z,67.60
2022-09-15T12:25:50.196Z,67.80
2022-09-15T12:28:23.181Z,67.90
2022-09-15T12:31:25.610Z,68.10
2022-09-15T12:33:59.969Z,67.50
2022-09-15T12:36:39.536Z,67.10
2022-09-15T12:39:37.530Z,67.00
2022-09-15T12:42:10.926Z,67.00
2022-09-15T12:44:42.170Z,67.30
2022-09-15T12:47:28.599Z,67.00
2022-09-15T12:50:00.991Z,66.70
2022-09-15T12:52:29.351Z,66.30
2022-09-15T12:55:01.546Z,66.30
2022-09-15T12:57:33.441Z,66.70
2022-09-15T13:00:28.803Z,67.10
2022-09-15T13:02:57.542Z,67.50
2022-09-15T13:05:42.633Z,67.40
2022-09-15T13:08:15.434Z,67.50
2022-09-15T13:10:59.802Z,67.40
2022-09-15T13:13:39.409Z,67.20
2022-09-15T13:16:17.991Z,66.80
2022-09-15T13:18:47.149Z,66.20
2022-09-15T13:21:21.121Z,65.50
2022-09-15T13:23:51.904Z,65.20
2022-09-15T13:26:24.067Z,64.70
2022-09-15T13:28:55.748Z,64.50
2022-09-15T13:31:48.118Z,63.90
2022-09-15T13:35:09.965Z,63.20
2022-09-15T13:38:19.996Z,62.30
2022-09-15T13:41:04.924Z,61.80
2022-09-15T13:43:40.988Z,61.40
2022-09-15T13:46:35.714Z,61.40
2022-09-15T13:49:35.790Z,61.40
2022-09-15T13:52:22.463Z,61.70
2022-09-15T13:55:14.353Z,61.90
2022-09-15T14:00:55.552Z,61.70
2022-09-15T14:04:00.777Z,61.20
2022-09-15T14:06:34.169Z,60.90
2022-09-15T14:09:06.504Z,61.10
2022-09-15T14:11:35.910Z,61.20
2022-09-15T14:14:04.956Z,61.30
2022-09-15T14:16:35.310Z,61.50
2022-09-15T14:19:18.611Z,61.70
2022-09-15T14:21:49.156Z,61.80
2022-09-15T14:24:22.270Z,62.00
2022-09-15T14:26:49.349Z,62.50
2022-09-15T14:29:20.836Z,62.90
2022-09-15T14:31:49.033Z,63.30
2022-09-15T14:34:23.898Z,63.60
2022-09-15T14:37:43.036Z,64.00
2022-09-15T14:40:25.229Z,64.60
2022-09-15T14:42:52.405Z,65.10
2022-09-15T14:48:16.227Z,66.00
2022-09-15T14:50:55.483Z,66.80
2022-09-15T14:53:25.416Z,67.20
2022-09-15T14:55:54.962Z,67.30
2022-09-15T14:58:47.134Z,67.70
2022-09-15T15:01:20.135Z,68.90
2022-09-15T15:03:55.896Z,68.40
2022-09-15T15:06:30.384Z,68.80
2022-09-15T15:09:07.729Z,69.20
2022-09-15T15:11:36.825Z,69.40
2022-09-15T15:14:07.440Z,69.70
2022-09-15T15:16:35.478Z,70.00
2022-09-15T15:19:02.726Z,70.20
2022-09-15T15:21:40.392Z,70.50
2022-09-15T15:24:13.452Z,70.60
2022-09-15T15:26:42.982Z,70.80
2022-09-15T15:29:38.107Z,70.90
2022-09-15T15:32:10.668Z,71.10
2022-09-15T15:34:38.464Z,71.00
2022-09-15T15:37:26.991Z,71.10
2022-09-15T15:39:56.071Z,71.10
2022-09-15T15:42:24.552Z,71.20
2022-09-15T15:45:02.263Z,71.20
2022-09-15T15:47:32.539Z,71.20
2022-09-15T15:50:20.956Z,71.00
2022-09-15T15:52:49.249Z,71.00
2022-09-15T15:55:19.281Z,70.80
2022-09-15T15:57:54.688Z,70.60
2022-09-15T16:00:32.842Z,70.50
2022-09-15T16:02:59.922Z,70.40
2022-09-15T16:05:29.360Z,70.00
2022-09-15T16:07:59.506Z,69.90
2022-09-15T16:10:30.836Z,69.80
2022-09-15T16:12:57.796Z,69.50
2022-09-15T16:15:24.710Z,69.40
2022-09-15T16:17:51.697Z,69.40
2022-09-15T16:20:23.416Z,69.50
2022-09-15T16:22:50.495Z,69.50
2022-09-15T16:25:56.091Z,69.00
2022-09-15T16:28:23.069Z,68.70
2022-09-15T16:30:50.048Z,68.40
2022-09-15T16:33:18.662Z,68.10
2022-09-15T16:36:09.681Z,67.90
2022-09-15T16:38:36.896Z,67.80
2022-09-15T16:41:10.272Z,67.40
2022-09-15T16:43:37.208Z,67.10
2022-09-15T16:46:06.404Z,67.10
2022-09-15T16:48:34.235Z,66.90
2022-09-15T16:51:20.969Z,66.80
2022-09-15T16:53:48.552Z,66.80
2022-09-15T16:56:16.077Z,66.60
2022-09-15T16:58:43.609Z,66.40
2022-09-15T17:01:19.485Z,66.60
2022-09-15T17:03:47.481Z,66.80
2022-09-15T17:06:16.388Z,66.80
2022-09-15T17:08:43.891Z,66.30
2022-09-15T17:11:16.853Z,65.90
2022-09-15T17:13:44.397Z,65.50
2022-09-15T17:16:13.974Z,65.20
2022-09-15T17:18:41.089Z,64.70
2022-09-15T17:21:13.945Z,64.10
2022-09-15T17:23:44.212Z,63.50
2022-09-15T17:26:14.390Z,63.10
2022-09-15T17:28:42.299Z,62.70
2022-09-15T17:31:21.525Z,62.60
2022-09-15T17:33:49.653Z,62.30
2022-09-15T17:36:17.346Z,62.00
2022-09-15T17:38:45.407Z,61.80
2022-09-15T17:41:18.338Z,61.60
2022-09-15T17:43:45.532Z,61.30
2022-09-15T17:46:12.814Z,61.20
2022-09-15T17:48:40.123Z,61.10
2022-09-15T17:51:09.788Z,60.90
2022-09-15T17:53:37.134Z,60.80
2022-09-15T17:56:04.132Z,60.80
2022-09-15T17:58:31.909Z,60.70
2022-09-15T18:00:59.381Z,60.90
2022-09-15T18:03:30.434Z,60.90
2022-09-15T18:05:59.105Z,60.90
2022-09-15T18:08:27.249Z,60.90
2022-09-15T18:10:54.663Z,60.90
2022-09-15T18:13:29.763Z,61.00
2022-09-15T18:15:57.896Z,60.90
2022-09-15T18:18:27.240Z,60.80
2022-09-15T18:20:56.748Z,60.60
2022-09-15T18:23:25.818Z,60.60
2022-09-15T18:25:52.954Z,60.50
2022-09-15T18:28:20.433Z,60.40
2022-09-15T18:30:49.630Z,60.40
2022-09-15T18:33:21.835Z,60.30
2022-09-15T18:35:52.181Z,60.30
2022-09-15T18:38:19.580Z,60.30
2022-09-15T18:40:49.033Z,60.10
2022-09-15T18:43:16.931Z,60.10
2022-09-15T18:45:44.437Z,60.00
2022-09-15T18:48:13.019Z,59.90
2022-09-15T18:50:41.623Z,59.80
2022-09-15T18:53:09.191Z,59.70
2022-09-15T18:55:36.654Z,59.70
2022-09-15T18:58:03.637Z,59.70
2022-09-15T19:00:31.776Z,59.70
2022-09-15T19:03:01.014Z,60.00
2022-09-15T19:05:29.221Z,59.60
2022-09-15T19:07:57.066Z,59.60
2022-09-15T19:10:25.114Z,59.40
2022-09-15T19:12:52.014Z,59.30
2022-09-15T19:15:23.751Z,59.20
2022-09-15T19:17:51.076Z,59.30
2022-09-15T19:20:18.131Z,59.20
2022-09-15T19:22:46.058Z,59.00
2022-09-15T19:25:13.718Z,59.00
2022-09-15T19:27:41.441Z,58.90
2022-09-15T19:30:10.097Z,58.70
2022-09-15T19:32:38.465Z,58.50
2022-09-15T19:35:06.724Z,58.40
2022-09-15T19:37:37.344Z,58.40
2022-09-15T19:40:08.657Z,58.30
2022-09-15T19:42:40.104Z,58.40
2022-09-15T19:45:08.984Z,58.40
2022-09-15T19:47:36.129Z,58.40
2022-09-15T19:50:05.709Z,58.40
2022-09-15T19:52:33.146Z,58.40
2022-09-15T19:55:00.092Z,58.40
2022-09-15T19:57:27.324Z,58.50
2022-09-15T19:59:54.287Z,58.60
2022-09-15T20:02:21.324Z,58.70
2022-09-15T20:04:49.976Z,58.80
2022-09-15T20:07:16.909Z,58.80
2022-09-15T20:09:44.213Z,59.00
2022-09-15T20:12:11.249Z,59.10
2022-09-15T20:14:38.382Z,59.20
2022-09-15T20:17:05.408Z,59.30
2022-09-15T20:19:32.616Z,59.20
2022-09-15T20:21:59.632Z,59.40
2022-09-15T20:24:26.599Z,59.60
2022-09-15T20:26:54.126Z,60.00
2022-09-15T20:29:21.446Z,60.60
2022-09-15T20:31:48.618Z,61.10
2022-09-15T20:34:16.602Z,61.50
2022-09-15T20:36:43.740Z,62.10
2022-09-15T20:39:14.546Z,62.50
2022-09-15T20:41:46.545Z,62.80
2022-09-15T20:44:14.363Z,63.00
2022-09-15T20:46:41.558Z,63.00
2022-09-15T20:49:09.388Z,63.00
2022-09-15T20:51:36.497Z,63.70
2022-09-15T20:54:04.392Z,63.00
2022-09-15T20:56:35.009Z,63.00
2022-09-15T20:59:04.047Z,62.90
2022-09-15T21:01:36.828Z,62.80
2022-09-15T21:04:09.265Z,62.80
2022-09-15T21:06:36.702Z,62.80
2022-09-15T21:09:05.084Z,62.90
2022-09-15T21:11:32.216Z,63.00
2022-09-15T21:13:59.216Z,63.20
2022-09-15T21:16:28.427Z,63.50
2022-09-15T21:18:57.024Z,63.70
2022-09-15T21:21:26.311Z,63.90
2022-09-15T21:23:55.518Z,64.20
2022-09-15T21:26:27.404Z,64.50
2022-09-15T21:28:55.792Z,64.80
2022-09-15T21:31:28.804Z,65.10
2022-09-15T21:33:57.582Z,65.60
2022-09-15T21:36:25.975Z,66.10
2022-09-15T21:38:55.060Z,66.70
2022-09-15T21:41:24.277Z,67.30
2022-09-15T21:43:55.794Z,67.80
2022-09-15T21:46:26.605Z,68.10
2022-09-15T21:48:56.047Z,68.30
2022-09-15T21:51:25.174Z,68.50
2022-09-15T21:53:54.117Z,69.00
2022-09-15T21:56:22.033Z,69.30
2022-09-15T21:58:49.382Z,69.50
2022-09-15T22:01:19.313Z,69.90
2022-09-15T22:03:53.244Z,70.10
2022-09-15T22:06:23.365Z,70.40
2022-09-15T22:08:50.557Z,70.60
2022-09-15T22:11:17.561Z,70.70
2022-09-15T22:13:44.814Z,70.90
2022-09-15T22:16:14.076Z,71.10
2022-09-15T22:18:42.770Z,71.40
2022-09-15T22:21:11.432Z,71.70
2022-09-15T22:23:39.546Z,72.00
2022-09-15T22:26:13.000Z,72.20
2022-09-15T22:28:40.211Z,72.50
2022-09-15T22:31:09.229Z,72.50
2022-09-15T22:33:37.216Z,72.60
2022-09-15T22:36:06.016Z,72.50
2022-09-15T22:38:33.072Z,72.40
2022-09-15T22:41:05.482Z,72.60
2022-09-15T22:43:33.677Z,72.90
2022-09-15T22:46:01.342Z,73.20
2022-09-15T22:48:28.939Z,73.40
2022-09-15T22:50:55.956Z,73.40
2022-09-15T22:53:23.547Z,74.10
2022-09-15T22:55:51.108Z,73.50
2022-09-15T22:58:18.249Z,73.40
2022-09-15T23:00:45.440Z,73.40
2022-09-15T23:03:12.648Z,73.40
2022-09-15T23:05:39.669Z,73.40
2022-09-15T23:08:06.689Z,73.60
2022-09-15T23:10:33.700Z,73.70
2022-09-15T23:13:00.689Z,73.80
2022-09-15T23:15:28.756Z,73.80
2022-09-15T23:17:55.764Z,73.90
2022-09-15T23:20:22.723Z,73.70
2022-09-15T23:22:49.785Z,73.70
2022-09-15T23:25:17.317Z,73.60
2022-09-15T23:27:44.244Z,73.60
2022-09-15T23:30:11.760Z,73.90
2022-09-15T23:32:38.717Z,74.30
2022-09-15T23:35:06.069Z,74.50
2022-09-15T23:37:33.054Z,74.50
2022-09-15T23:40:00.037Z,74.30
2022-09-15T23:42:27.107Z,74.10
2022-09-15T23:44:54.061Z,74.00
2022-09-15T23:47:21.020Z,73.90
2022-09-15T23:49:47.919Z,74.00
2022-09-15T23:52:14.944Z,74.20
2022-09-15T23:54:41.947Z,74.20
2022-09-15T23:57:11.003Z,74.00
2022-09-15T23:59:38.019Z,74.00
